UAL4TR KJFK-KIAD
Flight info
| Callsign | UAL4TR |
|---|---|
| Flight time | 0h 49m |
| Altitude | 16000 |
| Route | DIXIE T224 ENO T358 OBWON BAL V44 MRB AML |
| Aircraft | A21N/M-SDE2E3FGHIRWXY/LB1 |
Departure
| Time | 2026-05-09 00:46 |
|---|---|
| Airport | John F. Kennedy International Airport (KJFK) |
Arrival
| Time | 2026-05-09 01:36 |
|---|---|
| Airport | Washington Dulles International Airport (KIAD) |
| Time | Latitude | Longitude | Altitude | Speed | Heading |
|---|---|---|---|---|---|
| 2026-05-09 00:09 | 40.64935 | -73.78132 | 26 ft | 0 kts | 283° |
| 2026-05-09 00:32 | 40.64930 | -73.78107 | 24 ft | 4 kts | 286° |
| 2026-05-09 00:32 | 40.64921 | -73.78087 | 26 ft | 4 kts | 7° |
| 2026-05-09 00:33 | 40.64896 | -73.78099 | 25 ft | 4 kts | 21° |
| 2026-05-09 00:33 | 40.64883 | -73.78105 | 25 ft | 0 kts | 13° |
| 2026-05-09 00:33 | 40.64882 | -73.78105 | 24 ft | 1 kts | 13° |
| 2026-05-09 00:33 | 40.64880 | -73.78106 | 24 ft | 0 kts | 13° |
| 2026-05-09 00:37 | 40.64881 | -73.78105 | 23 ft | 2 kts | 13° |
| 2026-05-09 00:37 | 40.64937 | -73.78088 | 23 ft | 14 kts | 13° |
| 2026-05-09 00:37 | 40.65041 | -73.78056 | 25 ft | 14 kts | 18° |
| 2026-05-09 00:38 | 40.65078 | -73.77950 | 26 ft | 13 kts | 115° |
| 2026-05-09 00:38 | 40.65015 | -73.77820 | 23 ft | 21 kts | 122° |
| 2026-05-09 00:38 | 40.64928 | -73.77628 | 24 ft | 28 kts | 121° |
| 2026-05-09 00:38 | 40.64827 | -73.77406 | 27 ft | 27 kts | 121° |
| 2026-05-09 00:39 | 40.64722 | -73.77176 | 25 ft | 25 kts | 124° |
| 2026-05-09 00:39 | 40.64571 | -73.77089 | 24 ft | 24 kts | 182° |
| 2026-05-09 00:39 | 40.64452 | -73.77085 | 24 ft | 13 kts | 149° |
| 2026-05-09 00:39 | 40.64412 | -73.76982 | 26 ft | 13 kts | 108° |
| 2026-05-09 00:40 | 40.64363 | -73.76885 | 25 ft | 13 kts | 147° |
| 2026-05-09 00:40 | 40.64277 | -73.76878 | 25 ft | 13 kts | 184° |
| 2026-05-09 00:40 | 40.64177 | -73.76886 | 25 ft | 17 kts | 183° |
| 2026-05-09 00:41 | 40.63879 | -73.76913 | 25 ft | 26 kts | 182° |
| 2026-05-09 00:41 | 40.63686 | -73.76915 | 25 ft | 30 kts | 180° |
| 2026-05-09 00:41 | 40.63470 | -73.76926 | 23 ft | 32 kts | 186° |
| 2026-05-09 00:41 | 40.63241 | -73.76945 | 25 ft | 27 kts | 180° |
| 2026-05-09 00:42 | 40.63055 | -73.77005 | 23 ft | 28 kts | 210° |
| 2026-05-09 00:42 | 40.62904 | -73.77121 | 24 ft | 9 kts | 211° |
| 2026-05-09 00:42 | 40.62902 | -73.77122 | 24 ft | 0 kts | 211° |
| 2026-05-09 00:43 | 40.62900 | -73.77123 | 25 ft | 1 kts | 211° |
| 2026-05-09 00:43 | 40.62900 | -73.77124 | 25 ft | 0 kts | 211° |
| 2026-05-09 00:43 | 40.62877 | -73.77141 | 26 ft | 9 kts | 210° |
| 2026-05-09 00:44 | 40.62820 | -73.77210 | 25 ft | 6 kts | 257° |
| 2026-05-09 00:44 | 40.62843 | -73.77281 | 30 ft | 13 kts | 298° |
| 2026-05-09 00:44 | 40.62854 | -73.77304 | 28 ft | 0 kts | 303° |
| 2026-05-09 00:45 | 40.62943 | -73.77490 | 27 ft | 57 kts | 301° |
| 2026-05-09 00:46 | 40.63259 | -73.78190 | 25 ft | 122 kts | 301° |
| 2026-05-09 00:46 | 40.63799 | -73.79391 | 108 ft | 171 kts | 300° |
| 2026-05-09 00:46 | 40.64395 | -73.80749 | 685 ft | 174 kts | 300° |
| 2026-05-09 00:46 | 40.64647 | -73.82228 | 1456 ft | 165 kts | 257° |
| 2026-05-09 00:47 | 40.64033 | -73.83538 | 1997 ft | 180 kts | 228° |
| 2026-05-09 00:47 | 40.63056 | -73.84739 | 2449 ft | 201 kts | 224° |
| 2026-05-09 00:47 | 40.62004 | -73.85990 | 3285 ft | 204 kts | 226° |
| 2026-05-09 00:47 | 40.60974 | -73.87271 | 4199 ft | 203 kts | 228° |
| 2026-05-09 00:48 | 40.59969 | -73.88572 | 5034 ft | 202 kts | 229° |
| 2026-05-09 00:48 | 40.58967 | -73.89906 | 5706 ft | 212 kts | 230° |
| 2026-05-09 00:48 | 40.57898 | -73.91358 | 6181 ft | 229 kts | 230° |
| 2026-05-09 00:48 | 40.56736 | -73.92912 | 6772 ft | 245 kts | 227° |
| 2026-05-09 00:49 | 40.55359 | -73.94280 | 7701 ft | 250 kts | 219° |
| 2026-05-09 00:49 | 40.53887 | -73.95511 | 8729 ft | 251 kts | 218° |
| 2026-05-09 00:49 | 40.52400 | -73.96714 | 9777 ft | 251 kts | 218° |
| 2026-05-09 00:49 | 40.50893 | -73.97937 | 10527 ft | 261 kts | 219° |
| 2026-05-09 00:50 | 40.49283 | -73.99258 | 10902 ft | 286 kts | 219° |
| 2026-05-09 00:50 | 40.47502 | -74.00725 | 10979 ft | 319 kts | 218° |
| 2026-05-09 00:50 | 40.45509 | -74.02157 | 10980 ft | 343 kts | 206° |
| 2026-05-09 00:50 | 40.43105 | -74.02707 | 10985 ft | 361 kts | 186° |
| 2026-05-09 00:51 | 40.40585 | -74.02148 | 10999 ft | 374 kts | 170° |
| 2026-05-09 00:51 | 40.38076 | -74.01082 | 11261 ft | 384 kts | 167° |
| 2026-05-09 00:51 | 40.35522 | -73.99945 | 12043 ft | 391 kts | 167° |
| 2026-05-09 00:51 | 40.32916 | -73.98794 | 12774 ft | 398 kts | 167° |
| 2026-05-09 00:52 | 40.30306 | -73.97651 | 13929 ft | 393 kts | 167° |
| 2026-05-09 00:52 | 40.27742 | -73.96522 | 15061 ft | 384 kts | 168° |
| 2026-05-09 00:52 | 40.25276 | -73.95687 | 16096 ft | 346 kts | 179° |
| 2026-05-09 00:52 | 40.22955 | -73.95542 | 16746 ft | 324 kts | 194° |
| 2026-05-09 00:53 | 40.20818 | -73.96166 | 16977 ft | 310 kts | 212° |
| 2026-05-09 00:53 | 40.19003 | -73.97541 | 17011 ft | 295 kts | 229° |
| 2026-05-09 00:53 | 40.17655 | -73.99484 | 17004 ft | 283 kts | 244° |
| 2026-05-09 00:53 | 40.16825 | -74.01761 | 17002 ft | 275 kts | 258° |
| 2026-05-09 00:54 | 40.16539 | -74.04195 | 17004 ft | 270 kts | 271° |
| 2026-05-09 00:54 | 40.16588 | -74.06645 | 17003 ft | 270 kts | 276° |
| 2026-05-09 00:54 | 40.16766 | -74.09057 | 16999 ft | 270 kts | 278° |
| 2026-05-09 00:54 | 40.17004 | -74.11488 | 16995 ft | 270 kts | 279° |
| 2026-05-09 00:55 | 40.17257 | -74.13921 | 16995 ft | 270 kts | 279° |
| 2026-05-09 00:55 | 40.17502 | -74.16345 | 16995 ft | 270 kts | 278° |
| 2026-05-09 00:55 | 40.17735 | -74.18790 | 16997 ft | 270 kts | 278° |
| 2026-05-09 00:55 | 40.17953 | -74.21222 | 17000 ft | 270 kts | 278° |
| 2026-05-09 00:56 | 40.18161 | -74.23665 | 16993 ft | 270 kts | 277° |
| 2026-05-09 00:56 | 40.18363 | -74.26107 | 16997 ft | 270 kts | 277° |
| 2026-05-09 00:56 | 40.18561 | -74.28548 | 16997 ft | 270 kts | 277° |
| 2026-05-09 00:56 | 40.18758 | -74.30988 | 16995 ft | 270 kts | 277° |
| 2026-05-09 00:57 | 40.18954 | -74.33429 | 16993 ft | 270 kts | 277° |
| 2026-05-09 00:57 | 40.19151 | -74.35872 | 16991 ft | 270 kts | 277° |
| 2026-05-09 00:57 | 40.19349 | -74.38318 | 16991 ft | 270 kts | 277° |
| 2026-05-09 00:57 | 40.19546 | -74.40762 | 16991 ft | 270 kts | 277° |
| 2026-05-09 00:58 | 40.19743 | -74.43205 | 16993 ft | 270 kts | 277° |
| 2026-05-09 00:58 | 40.19936 | -74.45614 | 16988 ft | 270 kts | 277° |
| 2026-05-09 00:58 | 40.20103 | -74.48050 | 17081 ft | 269 kts | 273° |
| 2026-05-09 00:58 | 40.19978 | -74.50520 | 17607 ft | 274 kts | 266° |
| 2026-05-09 00:59 | 40.19692 | -74.52993 | 18409 ft | 276 kts | 264° |
| 2026-05-09 00:59 | 40.19361 | -74.55474 | 19161 ft | 277 kts | 264° |
| 2026-05-09 00:59 | 40.19016 | -74.57949 | 19919 ft | 277 kts | 264° |
| 2026-05-09 00:59 | 40.18664 | -74.60429 | 20664 ft | 278 kts | 264° |
| 2026-05-09 01:00 | 40.18308 | -74.62910 | 21370 ft | 279 kts | 265° |
| 2026-05-09 01:00 | 40.17948 | -74.65418 | 21821 ft | 282 kts | 265° |
| 2026-05-09 01:00 | 40.17581 | -74.67948 | 21936 ft | 281 kts | 265° |
| 2026-05-09 01:00 | 40.17216 | -74.70462 | 21943 ft | 282 kts | 265° |
| 2026-05-09 01:01 | 40.16849 | -74.72981 | 21945 ft | 282 kts | 264° |
| 2026-05-09 01:01 | 40.16481 | -74.75503 | 21951 ft | 282 kts | 264° |
| 2026-05-09 01:01 | 40.16112 | -74.78026 | 21949 ft | 282 kts | 264° |
| 2026-05-09 01:01 | 40.15743 | -74.80548 | 21956 ft | 282 kts | 264° |
| 2026-05-09 01:02 | 40.15374 | -74.83065 | 21951 ft | 282 kts | 264° |
| 2026-05-09 01:02 | 40.15008 | -74.85557 | 21955 ft | 282 kts | 264° |
| 2026-05-09 01:02 | 40.14638 | -74.88076 | 21954 ft | 282 kts | 264° |
| 2026-05-09 01:02 | 40.14267 | -74.90595 | 21951 ft | 282 kts | 264° |
| 2026-05-09 01:03 | 40.13926 | -74.93225 | 21936 ft | 281 kts | 267° |
| 2026-05-09 01:03 | 40.13702 | -74.95658 | 21953 ft | 282 kts | 268° |
| 2026-05-09 01:03 | 40.13482 | -74.98205 | 21949 ft | 282 kts | 268° |
| 2026-05-09 01:03 | 40.13264 | -75.00755 | 21970 ft | 282 kts | 268° |
| 2026-05-09 01:04 | 40.13046 | -75.03303 | 21969 ft | 282 kts | 268° |
| 2026-05-09 01:04 | 40.12828 | -75.05849 | 21977 ft | 282 kts | 268° |
| 2026-05-09 01:04 | 40.12608 | -75.08402 | 21965 ft | 282 kts | 269° |
| 2026-05-09 01:04 | 40.12504 | -75.10949 | 21970 ft | 280 kts | 272° |
| 2026-05-09 01:05 | 40.12459 | -75.13495 | 21968 ft | 280 kts | 272° |
| 2026-05-09 01:05 | 40.12441 | -75.16041 | 21959 ft | 280 kts | 273° |
| 2026-05-09 01:05 | 40.12443 | -75.21090 | 21966 ft | 280 kts | 273° |
| 2026-05-09 01:06 | 40.12449 | -75.23632 | 21959 ft | 280 kts | 273° |
| 2026-05-09 01:06 | 40.12455 | -75.26180 | 21964 ft | 280 kts | 273° |
| 2026-05-09 01:06 | 40.12458 | -75.28726 | 21965 ft | 280 kts | 273° |
| 2026-05-09 01:06 | 40.12459 | -75.31268 | 21963 ft | 280 kts | 273° |
| 2026-05-09 01:07 | 40.12459 | -75.33808 | 21962 ft | 280 kts | 273° |
| 2026-05-09 01:07 | 40.12458 | -75.36367 | 21966 ft | 288 kts | 273° |
| 2026-05-09 01:07 | 40.12461 | -75.39092 | 21960 ft | 310 kts | 273° |
| 2026-05-09 01:07 | 40.12464 | -75.42003 | 21956 ft | 330 kts | 273° |
| 2026-05-09 01:08 | 40.12464 | -75.45092 | 21969 ft | 349 kts | 272° |
| 2026-05-09 01:08 | 40.12460 | -75.48345 | 21975 ft | 364 kts | 272° |
| 2026-05-09 01:08 | 40.12451 | -75.51664 | 21971 ft | 366 kts | 272° |
| 2026-05-09 01:08 | 40.12438 | -75.54955 | 21974 ft | 367 kts | 272° |
| 2026-05-09 01:09 | 40.12424 | -75.58299 | 21984 ft | 367 kts | 272° |
| 2026-05-09 01:09 | 40.12411 | -75.61636 | 21981 ft | 367 kts | 272° |
| 2026-05-09 01:09 | 40.12398 | -75.64970 | 21982 ft | 367 kts | 272° |
| 2026-05-09 01:09 | 40.12384 | -75.68310 | 21979 ft | 367 kts | 272° |
| 2026-05-09 01:10 | 40.12370 | -75.71646 | 21977 ft | 367 kts | 272° |
| 2026-05-09 01:10 | 40.12356 | -75.74979 | 21974 ft | 367 kts | 272° |
| 2026-05-09 01:10 | 40.12341 | -75.78311 | 21973 ft | 367 kts | 272° |
| 2026-05-09 01:10 | 40.12327 | -75.81636 | 21970 ft | 366 kts | 272° |
| 2026-05-09 01:11 | 40.12312 | -75.84962 | 21962 ft | 365 kts | 272° |
| 2026-05-09 01:11 | 40.12295 | -75.88280 | 21959 ft | 365 kts | 272° |
| 2026-05-09 01:11 | 40.12278 | -75.91566 | 21965 ft | 365 kts | 272° |
| 2026-05-09 01:11 | 40.12258 | -75.94890 | 21954 ft | 365 kts | 272° |
| 2026-05-09 01:12 | 40.12237 | -75.98204 | 21964 ft | 365 kts | 272° |
| 2026-05-09 01:12 | 40.12217 | -76.01519 | 21864 ft | 365 kts | 272° |
| 2026-05-09 01:12 | 40.12196 | -76.04906 | 21615 ft | 378 kts | 272° |
| 2026-05-09 01:12 | 40.12174 | -76.08371 | 21171 ft | 382 kts | 271° |
| 2026-05-09 01:13 | 40.12150 | -76.11833 | 20662 ft | 381 kts | 271° |
| 2026-05-09 01:13 | 40.12123 | -76.15290 | 20067 ft | 380 kts | 271° |
| 2026-05-09 01:13 | 40.12095 | -76.18737 | 19364 ft | 379 kts | 271° |
| 2026-05-09 01:13 | 40.12066 | -76.22181 | 18648 ft | 377 kts | 271° |
| 2026-05-09 01:14 | 40.11976 | -76.25601 | 17895 ft | 377 kts | 266° |
| 2026-05-09 01:14 | 40.11490 | -76.28963 | 17090 ft | 378 kts | 256° |
| 2026-05-09 01:14 | 40.10482 | -76.32145 | 16317 ft | 380 kts | 246° |
| 2026-05-09 01:14 | 40.09198 | -76.35159 | 15538 ft | 379 kts | 244° |
| 2026-05-09 01:15 | 40.07854 | -76.38119 | 14805 ft | 378 kts | 243° |
| 2026-05-09 01:15 | 40.06504 | -76.41052 | 14193 ft | 377 kts | 243° |
| 2026-05-09 01:15 | 40.05145 | -76.43992 | 14000 ft | 377 kts | 242° |
| 2026-05-09 01:15 | 40.03809 | -76.46879 | 13985 ft | 376 kts | 242° |
| 2026-05-09 01:16 | 40.02440 | -76.49836 | 13985 ft | 375 kts | 242° |
| 2026-05-09 01:16 | 40.01112 | -76.52701 | 13983 ft | 374 kts | 242° |
| 2026-05-09 01:16 | 39.99767 | -76.55602 | 13982 ft | 374 kts | 242° |
| 2026-05-09 01:17 | 39.97076 | -76.61398 | 13982 ft | 374 kts | 242° |
| 2026-05-09 01:17 | 39.95727 | -76.64296 | 13984 ft | 374 kts | 242° |
| 2026-05-09 01:17 | 39.94381 | -76.67188 | 13990 ft | 374 kts | 242° |
| 2026-05-09 01:17 | 39.93031 | -76.70087 | 13983 ft | 374 kts | 242° |
| 2026-05-09 01:18 | 39.91679 | -76.72986 | 13989 ft | 374 kts | 242° |
| 2026-05-09 01:18 | 39.90327 | -76.75883 | 13992 ft | 374 kts | 242° |
| 2026-05-09 01:18 | 39.88973 | -76.78781 | 13983 ft | 374 kts | 242° |
| 2026-05-09 01:18 | 39.87616 | -76.81684 | 13985 ft | 374 kts | 242° |
| 2026-05-09 01:19 | 39.86262 | -76.84576 | 13982 ft | 374 kts | 242° |
| 2026-05-09 01:19 | 39.84909 | -76.87465 | 13990 ft | 375 kts | 242° |
| 2026-05-09 01:19 | 39.83548 | -76.90371 | 14005 ft | 376 kts | 242° |
| 2026-05-09 01:19 | 39.82201 | -76.93242 | 13999 ft | 376 kts | 242° |
| 2026-05-09 01:20 | 39.80836 | -76.96147 | 14000 ft | 376 kts | 242° |
| 2026-05-09 01:20 | 39.79485 | -76.99018 | 14000 ft | 363 kts | 242° |
| 2026-05-09 01:20 | 39.78209 | -77.01716 | 14018 ft | 338 kts | 242° |
| 2026-05-09 01:20 | 39.77015 | -77.04239 | 14011 ft | 316 kts | 242° |
| 2026-05-09 01:21 | 39.75902 | -77.06595 | 14015 ft | 296 kts | 243° |
| 2026-05-09 01:21 | 39.74853 | -77.08816 | 14007 ft | 281 kts | 243° |
| 2026-05-09 01:21 | 39.73836 | -77.10976 | 14011 ft | 280 kts | 243° |
| 2026-05-09 01:21 | 39.72821 | -77.13137 | 14014 ft | 280 kts | 243° |
| 2026-05-09 01:22 | 39.71804 | -77.15296 | 14009 ft | 281 kts | 243° |
| 2026-05-09 01:22 | 39.70783 | -77.17459 | 14003 ft | 281 kts | 243° |
| 2026-05-09 01:22 | 39.69759 | -77.19624 | 14007 ft | 281 kts | 243° |
| 2026-05-09 01:22 | 39.68728 | -77.21744 | 13996 ft | 282 kts | 239° |
| 2026-05-09 01:23 | 39.67463 | -77.23777 | 14000 ft | 287 kts | 236° |
| 2026-05-09 01:23 | 39.66224 | -77.25802 | 14011 ft | 290 kts | 235° |
| 2026-05-09 01:23 | 39.64796 | -77.27833 | 14042 ft | 309 kts | 231° |
| 2026-05-09 01:23 | 39.63266 | -77.29694 | 14021 ft | 296 kts | 224° |
| 2026-05-09 01:24 | 39.61703 | -77.31318 | 14014 ft | 289 kts | 223° |
| 2026-05-09 01:24 | 39.60125 | -77.32928 | 13997 ft | 289 kts | 223° |
| 2026-05-09 01:24 | 39.58543 | -77.34537 | 13994 ft | 290 kts | 223° |
| 2026-05-09 01:24 | 39.56908 | -77.36234 | 13957 ft | 304 kts | 224° |
| 2026-05-09 01:25 | 39.55295 | -77.37924 | 13767 ft | 291 kts | 224° |
| 2026-05-09 01:25 | 39.53753 | -77.39542 | 13594 ft | 279 kts | 224° |
| 2026-05-09 01:25 | 39.52247 | -77.41046 | 13414 ft | 270 kts | 215° |
| 2026-05-09 01:25 | 39.51101 | -77.41662 | 13288 ft | 270 kts | 200° |
| 2026-05-09 01:26 | 39.49268 | -77.42048 | 13136 ft | 263 kts | 191° |
| 2026-05-09 01:26 | 39.47475 | -77.42202 | 12943 ft | 254 kts | 190° |
| 2026-05-09 01:26 | 39.45713 | -77.42316 | 12564 ft | 253 kts | 189° |
| 2026-05-09 01:26 | 39.43925 | -77.42409 | 12189 ft | 263 kts | 188° |
| 2026-05-09 01:27 | 39.42078 | -77.42485 | 11802 ft | 267 kts | 188° |
| 2026-05-09 01:27 | 39.40214 | -77.42545 | 11363 ft | 268 kts | 187° |
| 2026-05-09 01:27 | 39.38335 | -77.42601 | 10828 ft | 272 kts | 187° |
| 2026-05-09 01:27 | 39.36430 | -77.42654 | 10232 ft | 274 kts | 187° |
| 2026-05-09 01:28 | 39.34537 | -77.42702 | 9658 ft | 269 kts | 186° |
| 2026-05-09 01:28 | 39.32681 | -77.42748 | 9056 ft | 264 kts | 186° |
| 2026-05-09 01:28 | 39.30855 | -77.42795 | 8464 ft | 260 kts | 185° |
| 2026-05-09 01:28 | 39.29062 | -77.42841 | 7853 ft | 256 kts | 185° |
| 2026-05-09 01:29 | 39.27292 | -77.42888 | 7263 ft | 253 kts | 184° |
| 2026-05-09 01:29 | 39.25544 | -77.42934 | 6672 ft | 249 kts | 184° |
| 2026-05-09 01:29 | 39.23841 | -77.42979 | 6051 ft | 247 kts | 183° |
| 2026-05-09 01:29 | 39.22135 | -77.43023 | 5429 ft | 242 kts | 183° |
| 2026-05-09 01:30 | 39.20469 | -77.43065 | 4825 ft | 236 kts | 182° |
| 2026-05-09 01:30 | 39.18853 | -77.43116 | 4303 ft | 228 kts | 184° |
| 2026-05-09 01:30 | 39.17289 | -77.43236 | 4040 ft | 222 kts | 184° |
| 2026-05-09 01:30 | 39.15784 | -77.43296 | 4008 ft | 212 kts | 182° |
| 2026-05-09 01:31 | 39.14314 | -77.43319 | 3934 ft | 210 kts | 181° |
| 2026-05-09 01:31 | 39.12853 | -77.43338 | 3730 ft | 210 kts | 182° |
| 2026-05-09 01:31 | 39.11375 | -77.43358 | 3453 ft | 216 kts | 184° |
| 2026-05-09 01:31 | 39.09908 | -77.43379 | 3131 ft | 206 kts | 184° |
| 2026-05-09 01:32 | 39.08523 | -77.43400 | 2865 ft | 193 kts | 184° |
| 2026-05-09 01:32 | 39.07225 | -77.43420 | 2637 ft | 177 kts | 184° |
| 2026-05-09 01:32 | 39.06065 | -77.43437 | 2381 ft | 157 kts | 184° |
| 2026-05-09 01:32 | 39.05036 | -77.43452 | 2167 ft | 139 kts | 185° |
| 2026-05-09 01:33 | 39.04130 | -77.43467 | 1976 ft | 122 kts | 185° |
| 2026-05-09 01:33 | 39.03305 | -77.43480 | 1826 ft | 117 kts | 185° |
| 2026-05-09 01:33 | 39.02494 | -77.43494 | 1677 ft | 117 kts | 184° |
| 2026-05-09 01:33 | 39.01687 | -77.43507 | 1525 ft | 119 kts | 184° |
| 2026-05-09 01:34 | 39.00853 | -77.43506 | 1365 ft | 120 kts | 183° |
| 2026-05-09 01:34 | 39.00011 | -77.43518 | 1213 ft | 121 kts | 182° |
| 2026-05-09 01:34 | 38.99157 | -77.43531 | 1070 ft | 125 kts | 182° |
| 2026-05-09 01:34 | 38.98272 | -77.43565 | 927 ft | 128 kts | 180° |
| 2026-05-09 01:35 | 38.97378 | -77.43573 | 726 ft | 129 kts | 181° |
| 2026-05-09 01:35 | 38.96479 | -77.43584 | 539 ft | 129 kts | 180° |
| 2026-05-09 01:35 | 38.95577 | -77.43593 | 354 ft | 129 kts | 180° |
| 2026-05-09 01:35 | 38.94745 | -77.43609 | 302 ft | 103 kts | 181° |
| 2026-05-09 01:36 | 38.94203 | -77.43617 | 308 ft | 53 kts | 180° |
| 2026-05-09 01:36 | 38.93950 | -77.43685 | 306 ft | 36 kts | 205° |
| 2026-05-09 01:36 | 38.93750 | -77.43846 | 300 ft | 20 kts | 233° |
| 2026-05-09 01:36 | 38.93774 | -77.43984 | 298 ft | 16 kts | 336° |
| 2026-05-09 01:37 | 38.93879 | -77.43988 | 300 ft | 15 kts | 0° |
| 2026-05-09 01:37 | 38.93987 | -77.43987 | 298 ft | 16 kts | 0° |
| 2026-05-09 01:37 | 38.94099 | -77.43986 | 301 ft | 17 kts | 0° |
| 2026-05-09 01:37 | 38.94184 | -77.43985 | 299 ft | 0 kts | 1° |
| 2026-05-09 01:38 | 38.94245 | -77.43984 | 298 ft | 17 kts | 0° |
| 2026-05-09 01:38 | 38.94368 | -77.43983 | 300 ft | 17 kts | 356° |
| 2026-05-09 01:38 | 38.94408 | -77.44021 | 297 ft | 6 kts | 272° |
| 2026-05-09 01:39 | 38.94418 | -77.44083 | 299 ft | 2 kts | 319° |
| 2026-05-09 01:39 | 38.94450 | -77.44081 | 299 ft | 11 kts | 356° |
| 2026-05-09 01:39 | 38.94489 | -77.44090 | 298 ft | 1 kts | 345° |
| 2026-05-09 01:39 | 38.94498 | -77.44094 | 300 ft | 0 kts | 345° |